sensor_id;sensor_type;location;lat;lon;timestamp;pressure;altitude;pressure_sealevel;temperature;humidity
14885;BME280;7534;50.762;7.000;2023-02-28T00:02:20;89017.03;;;-143.16;64.12
14885;BME280;7534;50.762;7.000;2023-02-28T00:04:46;89202.81;;;-143.16;63.99
14885;BME280;7534;50.762;7.000;2023-02-28T00:07:27;89527.91;;;-143.16;64.44
14885;BME280;7534;50.762;7.000;2023-02-28T00:09:53;89109.91;;;-143.16;64.47
14885;BME280;7534;50.762;7.000;2023-02-28T00:12:19;88901.94;;;-143.16;64.87
14885;BME280;7534;50.762;7.000;2023-02-28T00:14:44;89118.00;;;-143.16;64.87
14885;BME280;7534;50.762;7.000;2023-02-28T00:17:10;89136.16;;;-143.16;65.54
14885;BME280;7534;50.762;7.000;2023-02-28T00:19:36;89111.94;;;-143.16;65.47
14885;BME280;7534;50.762;7.000;2023-02-28T00:22:01;89031.16;;;-143.16;65.74
14885;BME280;7534;50.762;7.000;2023-02-28T00:24:27;88887.81;;;-143.16;65.81
14885;BME280;7534;50.762;7.000;2023-02-28T00:26:53;89120.00;;;-143.16;66.01
14885;BME280;7534;50.762;7.000;2023-02-28T00:29:18;89021.06;;;-143.16;66.02
14885;BME280;7534;50.762;7.000;2023-02-28T00:31:44;89126.06;;;-143.16;65.88
14885;BME280;7534;50.762;7.000;2023-02-28T00:34:09;89130.09;;;-143.16;65.51
14885;BME280;7534;50.762;7.000;2023-02-28T00:36:35;89182.59;;;-143.16;65.46
14885;BME280;7534;50.762;7.000;2023-02-28T00:39:01;89348.19;;;-143.16;65.64
14885;BME280;7534;50.762;7.000;2023-02-28T00:41:26;89069.53;;;-143.16;65.49
14885;BME280;7534;50.762;7.000;2023-02-28T00:43:52;89033.19;;;-143.16;65.66
14885;BME280;7534;50.762;7.000;2023-02-28T00:46:18;88829.25;;;-143.16;65.62
14885;BME280;7534;50.762;7.000;2023-02-28T00:48:43;89408.78;;;-143.16;65.79
14885;BME280;7534;50.762;7.000;2023-02-28T00:51:09;89033.19;;;-143.16;65.69
14885;BME280;7534;50.762;7.000;2023-02-28T00:53:34;88871.66;;;-143.16;65.85
14885;BME280;7534;50.762;7.000;2023-02-28T00:56:00;89035.22;;;-143.16;66.25
14885;BME280;7534;50.762;7.000;2023-02-28T00:58:26;89126.06;;;-143.16;66.05
14885;BME280;7534;50.762;7.000;2023-02-28T01:00:53;89124.06;;;-143.16;66.24
14885;BME280;7534;50.762;7.000;2023-02-28T01:03:19;89000.88;;;-143.16;66.28
14885;BME280;7534;50.762;7.000;2023-02-28T01:05:46;89158.38;;;-143.16;66.71
14885;BME280;7534;50.762;7.000;2023-02-28T01:08:13;89315.88;;;-143.16;66.87
14885;BME280;7534;50.762;7.000;2023-02-28T01:10:39;89097.81;;;-143.16;67.42
14885;BME280;7534;50.762;7.000;2023-02-28T01:13:05;89150.31;;;-143.16;67.06
14885;BME280;7534;50.762;7.000;2023-02-28T01:15:32;88883.78;;;-143.16;67.36
14885;BME280;7534;50.762;7.000;2023-02-28T01:17:58;89073.56;;;-143.16;67.39
14885;BME280;7534;50.762;7.000;2023-02-28T01:20:24;89063.47;;;-143.16;67.80
14885;BME280;7534;50.762;7.000;2023-02-28T01:22:50;89105.88;;;-143.16;67.69
14885;BME280;7534;50.762;7.000;2023-02-28T01:25:15;89085.69;;;-143.16;68.38
14885;BME280;7534;50.762;7.000;2023-02-28T01:27:41;89053.38;;;-143.16;68.50
14885;BME280;7534;50.762;7.000;2023-02-28T01:30:09;89174.53;;;-143.16;68.26
14885;BME280;7534;50.762;7.000;2023-02-28T01:32:36;88952.41;;;-143.16;68.34
14885;BME280;7534;50.762;7.000;2023-02-28T01:35:02;89071.56;;;-143.16;68.19
14885;BME280;7534;50.762;7.000;2023-02-28T01:37:27;89158.38;;;-143.16;68.19
14885;BME280;7534;50.762;7.000;2023-02-28T01:39:53;89182.59;;;-143.16;68.21
14885;BME280;7534;50.762;7.000;2023-02-28T01:42:19;89677.34;;;-143.16;68.12
14885;BME280;7534;50.762;7.000;2023-02-28T01:45:26;89045.31;;;-143.16;68.33
14885;BME280;7534;50.762;7.000;2023-02-28T01:47:58;89079.63;;;-143.16;68.20
14885;BME280;7534;50.762;7.000;2023-02-28T01:50:33;89233.09;;;-143.16;67.97
14885;BME280;7534;50.762;7.000;2023-02-28T01:53:04;89126.06;;;-143.16;68.35
14885;BME280;7534;50.762;7.000;2023-02-28T01:55:32;89085.69;;;-143.16;68.15
14885;BME280;7534;50.762;7.000;2023-02-28T01:58:02;89107.91;;;-143.16;68.33
14885;BME280;7534;50.762;7.000;2023-02-28T02:00:30;89247.22;;;-143.16;68.61
14885;BME280;7534;50.762;7.000;2023-02-28T02:03:01;89225.00;;;-143.16;68.55
14885;BME280;7534;50.762;7.000;2023-02-28T02:05:31;89441.09;;;-143.16;68.94
14885;BME280;7534;50.762;7.000;2023-02-28T02:08:08;89156.34;;;-143.16;68.88
14885;BME280;7534;50.762;7.000;2023-02-28T02:10:41;89218.97;;;-143.16;69.22
14885;BME280;7534;50.762;7.000;2023-02-28T02:21:21;89233.09;;;-143.16;69.86
14885;BME280;7534;50.762;7.000;2023-02-28T02:27:27;89152.31;;;-143.16;70.38
14885;BME280;7534;50.762;7.000;2023-02-28T02:36:51;89043.28;;;-143.16;69.92
14885;BME280;7534;50.762;7.000;2023-02-28T02:40:00;89178.56;;;-143.16;69.75
14885;BME280;7534;50.762;7.000;2023-02-28T02:42:41;89241.16;;;-143.16;69.37
14885;BME280;7534;50.762;7.000;2023-02-28T02:47:45;89115.97;;;-143.16;69.80
14885;BME280;7534;50.762;7.000;2023-02-28T02:50:24;89194.72;;;-143.16;70.25
14885;BME280;7534;50.762;7.000;2023-02-28T02:52:56;89259.34;;;-143.16;70.00
14885;BME280;7534;50.762;7.000;2023-02-28T02:55:23;89291.66;;;-143.16;70.54
14885;BME280;7534;50.762;7.000;2023-02-28T02:58:03;88998.88;;;-143.16;70.85
14885;BME280;7534;50.762;7.000;2023-02-28T03:00:38;89202.81;;;-143.16;70.82
14885;BME280;7534;50.762;7.000;2023-02-28T03:03:08;89210.88;;;-143.16;71.06
14885;BME280;7534;50.762;7.000;2023-02-28T03:05:51;89212.91;;;-143.16;70.88
14885;BME280;7534;50.762;7.000;2023-02-28T03:08:17;89198.75;;;-143.16;71.04
14885;BME280;7534;50.762;7.000;2023-02-28T03:10:50;89186.66;;;-143.16;70.90
14885;BME280;7534;50.762;7.000;2023-02-28T03:19:25;89097.81;;;-143.16;70.68
14885;BME280;7534;50.762;7.000;2023-02-28T03:30:51;89017.03;;;-143.16;71.06
14885;BME280;7534;50.762;7.000;2023-02-28T03:33:43;89251.25;;;-143.16;71.04
14885;BME280;7534;50.762;7.000;2023-02-28T03:36:17;89162.41;;;-143.16;71.15
14885;BME280;7534;50.762;7.000;2023-02-28T03:39:03;89249.25;;;-143.16;71.34
14885;BME280;7534;50.762;7.000;2023-02-28T03:41:48;89166.47;;;-143.16;71.46
14885;BME280;7534;50.762;7.000;2023-02-28T03:44:24;89384.53;;;-143.16;71.83
14885;BME280;7534;50.762;7.000;2023-02-28T03:47:17;89126.06;;;-143.16;71.59
14885;BME280;7534;50.762;7.000;2023-02-28T03:49:59;88984.72;;;-143.16;71.56
14885;BME280;7534;50.762;7.000;2023-02-28T03:52:37;89073.56;;;-143.16;71.36
14885;BME280;7534;50.762;7.000;2023-02-28T03:55:11;89103.84;;;-143.16;71.42
14885;BME280;7534;50.762;7.000;2023-02-28T03:58:01;89198.75;;;-143.16;71.32
14885;BME280;7534;50.762;7.000;2023-02-28T04:00:38;89037.22;;;-143.16;71.43
14885;BME280;7534;50.762;7.000;2023-02-28T04:03:05;89136.16;;;-143.16;71.23
14885;BME280;7534;50.762;7.000;2023-02-28T04:05:32;89120.00;;;-143.16;71.35
14885;BME280;7534;50.762;7.000;2023-02-28T04:08:08;89107.91;;;-143.16;71.25
14885;BME280;7534;50.762;7.000;2023-02-28T04:10:34;89202.81;;;-143.16;71.52
14885;BME280;7534;50.762;7.000;2023-02-28T04:12:59;89015.03;;;-143.16;71.46
14885;BME280;7534;50.762;7.000;2023-02-28T04:15:25;89093.75;;;-143.16;71.82
14885;BME280;7534;50.762;7.000;2023-02-28T04:17:52;89113.97;;;-143.16;71.63
14885;BME280;7534;50.762;7.000;2023-02-28T04:20:18;89214.91;;;-143.16;71.63
14885;BME280;7534;50.762;7.000;2023-02-28T04:22:44;89152.31;;;-143.16;71.92
14885;BME280;7534;50.762;7.000;2023-02-28T04:25:10;89168.47;;;-143.16;71.82
14885;BME280;7534;50.762;7.000;2023-02-28T04:27:35;89202.81;;;-143.16;71.36
14885;BME280;7534;50.762;7.000;2023-02-28T04:30:01;88958.47;;;-143.16;71.36
14885;BME280;7534;50.762;7.000;2023-02-28T04:32:27;89113.97;;;-143.16;71.73
14885;BME280;7534;50.762;7.000;2023-02-28T04:34:52;89109.91;;;-143.16;71.39
14885;BME280;7534;50.762;7.000;2023-02-28T04:37:18;89180.59;;;-143.16;71.68
14885;BME280;7534;50.762;7.000;2023-02-28T04:39:44;89182.59;;;-143.16;71.52
14885;BME280;7534;50.762;7.000;2023-02-28T04:42:10;89529.94;;;-143.16;71.45
14885;BME280;7534;50.762;7.000;2023-02-28T04:44:36;89196.75;;;-143.16;71.48
14885;BME280;7534;50.762;7.000;2023-02-28T04:47:02;89103.84;;;-143.16;71.54
14885;BME280;7534;50.762;7.000;2023-02-28T04:49:28;89154.34;;;-143.16;71.53
14885;BME280;7534;50.762;7.000;2023-02-28T04:51:53;89130.09;;;-143.16;71.88
14885;BME280;7534;50.762;7.000;2023-02-28T04:54:19;89109.91;;;-143.16;72.00
14885;BME280;7534;50.762;7.000;2023-02-28T04:56:45;89097.81;;;-143.16;71.68
14885;BME280;7534;50.762;7.000;2023-02-28T04:59:11;89148.28;;;-143.16;71.94
14885;BME280;7534;50.762;7.000;2023-02-28T05:01:36;89061.47;;;-143.16;71.65
14885;BME280;7534;50.762;7.000;2023-02-28T05:04:04;89126.06;;;-143.16;71.70
14885;BME280;7534;50.762;7.000;2023-02-28T05:06:32;89208.88;;;-143.16;71.77
14885;BME280;7534;50.762;7.000;2023-02-28T05:08:58;89037.22;;;-143.16;71.82
14885;BME280;7534;50.762;7.000;2023-02-28T05:11:32;89249.25;;;-143.16;71.80
14885;BME280;7534;50.762;7.000;2023-02-28T05:14:11;89107.91;;;-143.16;71.72
14885;BME280;7534;50.762;7.000;2023-02-28T05:16:38;89527.91;;;-143.16;71.83
14885;BME280;7534;50.762;7.000;2023-02-28T05:19:03;89154.34;;;-143.16;71.79
14885;BME280;7534;50.762;7.000;2023-02-28T05:21:41;89235.09;;;-143.16;71.77
14885;BME280;7534;50.762;7.000;2023-02-28T05:24:13;89097.81;;;-143.16;71.86
14885;BME280;7534;50.762;7.000;2023-02-28T05:26:42;89192.72;;;-143.16;71.96
14885;BME280;7534;50.762;7.000;2023-02-28T05:29:09;89239.16;;;-143.16;72.19
14885;BME280;7534;50.762;7.000;2023-02-28T05:31:36;89156.34;;;-143.16;72.39
14885;BME280;7534;50.762;7.000;2023-02-28T05:34:02;89059.44;;;-143.16;72.20
14885;BME280;7534;50.762;7.000;2023-02-28T05:36:30;89138.19;;;-143.16;72.22
14885;BME280;7534;50.762;7.000;2023-02-28T05:38:55;89237.13;;;-143.16;72.30
14885;BME280;7534;50.762;7.000;2023-02-28T05:41:21;89370.41;;;-143.16;72.08
14885;BME280;7534;50.762;7.000;2023-02-28T05:43:48;89077.59;;;-143.16;72.04
14885;BME280;7534;50.762;7.000;2023-02-28T05:46:14;89101.84;;;-143.16;72.40
14885;BME280;7534;50.762;7.000;2023-02-28T05:48:42;89223.00;;;-143.16;72.57
14885;BME280;7534;50.762;7.000;2023-02-28T05:51:09;89113.97;;;-143.16;72.65
14885;BME280;7534;50.762;7.000;2023-02-28T05:53:35;89055.41;;;-143.16;72.51
14885;BME280;7534;50.762;7.000;2023-02-28T05:56:01;89212.91;;;-143.16;72.56
14885;BME280;7534;50.762;7.000;2023-02-28T05:58:27;89152.31;;;-143.16;72.36
14885;BME280;7534;50.762;7.000;2023-02-28T06:01:00;89216.94;;;-143.16;72.52
14885;BME280;7534;50.762;7.000;2023-02-28T06:03:27;89243.19;;;-143.16;72.22
14885;BME280;7534;50.762;7.000;2023-02-28T06:05:53;89279.53;;;-143.16;72.92
14885;BME280;7534;50.762;7.000;2023-02-28T06:08:19;89220.97;;;-143.16;73.27
14885;BME280;7534;50.762;7.000;2023-02-28T06:10:44;89180.59;;;-143.16;72.41
14885;BME280;7534;50.762;7.000;2023-02-28T06:13:10;88883.78;;;-143.16;71.94
14885;BME280;7534;50.762;7.000;2023-02-28T06:15:38;89093.75;;;-143.16;71.56
14885;BME280;7534;50.762;7.000;2023-02-28T06:18:04;88766.66;;;-143.16;71.42
14885;BME280;7534;50.762;7.000;2023-02-28T06:20:30;89184.63;;;-143.16;71.54
14885;BME280;7534;50.762;7.000;2023-02-28T06:22:57;89231.06;;;-143.16;71.56
14885;BME280;7534;50.762;7.000;2023-02-28T06:25:27;89115.97;;;-143.16;71.75
14885;BME280;7534;50.762;7.000;2023-02-28T06:27:54;89210.88;;;-143.16;71.74
14885;BME280;7534;50.762;7.000;2023-02-28T06:30:21;89128.09;;;-143.16;71.65
14885;BME280;7534;50.762;7.000;2023-02-28T06:32:50;89128.09;;;-143.16;71.67
14885;BME280;7534;50.762;7.000;2023-02-28T06:35:16;89093.75;;;-143.16;71.77
14885;BME280;7534;50.762;7.000;2023-02-28T06:37:42;89420.88;;;-143.16;72.08
14885;BME280;7534;50.762;7.000;2023-02-28T06:40:10;89350.22;;;-143.16;72.10
14885;BME280;7534;50.762;7.000;2023-02-28T06:42:36;89077.59;;;-143.16;72.31
14885;BME280;7534;50.762;7.000;2023-02-28T06:45:02;89212.91;;;-143.16;72.34
14885;BME280;7534;50.762;7.000;2023-02-28T06:47:38;89208.88;;;-143.16;72.28
14885;BME280;7534;50.762;7.000;2023-02-28T06:50:06;89223.00;;;-143.16;72.36
14885;BME280;7534;50.762;7.000;2023-02-28T06:52:32;89105.88;;;-143.16;74.15
14885;BME280;7534;50.762;7.000;2023-02-28T06:54:57;89126.06;;;-143.16;77.54
14885;BME280;7534;50.762;7.000;2023-02-28T06:57:29;89328.00;;;-143.16;78.70
14885;BME280;7534;50.762;7.000;2023-02-28T07:00:08;89103.84;;;-143.16;77.41
14885;BME280;7534;50.762;7.000;2023-02-28T07:02:35;88996.84;;;-143.16;76.59
14885;BME280;7534;50.762;7.000;2023-02-28T07:05:01;89077.59;;;-143.16;77.71
14885;BME280;7534;50.762;7.000;2023-02-28T07:07:27;89067.50;;;-143.16;78.45
14885;BME280;7534;50.762;7.000;2023-02-28T07:09:53;88948.38;;;-143.16;77.96
14885;BME280;7534;50.762;7.000;2023-02-28T07:12:18;89049.34;;;-143.16;77.38
14885;BME280;7534;50.762;7.000;2023-02-28T07:14:44;88883.78;;;-143.16;74.39
14885;BME280;7534;50.762;7.000;2023-02-28T07:17:11;88859.53;;;-143.16;73.24
14885;BME280;7534;50.762;7.000;2023-02-28T07:19:38;88891.84;;;-143.16;70.35
14885;BME280;7534;50.762;7.000;2023-02-28T07:22:04;88815.13;;;-143.16;69.00
14885;BME280;7534;50.762;7.000;2023-02-28T07:24:30;88728.31;;;-143.16;67.55
14885;BME280;7534;50.762;7.000;2023-02-28T07:26:56;88776.75;;;-143.16;65.75
14885;BME280;7534;50.762;7.000;2023-02-28T07:29:22;88665.72;;;-143.16;62.92
14885;BME280;7534;50.762;7.000;2023-02-28T07:31:48;88631.41;;;-143.16;58.81
14885;BME280;7534;50.762;7.000;2023-02-28T07:34:15;88665.72;;;-143.16;55.75
14885;BME280;7534;50.762;7.000;2023-02-28T07:36:41;88282.16;;;-143.16;50.79
14885;BME280;7534;50.762;7.000;2023-02-28T07:39:07;88163.03;;;-143.16;45.75
14885;BME280;7534;50.762;7.000;2023-02-28T07:41:35;87985.41;;;-143.16;38.76
14885;BME280;7534;50.762;7.000;2023-02-28T07:44:05;87698.78;;;-143.16;32.92
14885;BME280;7534;50.762;7.000;2023-02-28T07:46:30;87648.31;;;-143.16;29.40
14885;BME280;7534;50.762;7.000;2023-02-28T07:49:01;87474.75;;;-143.16;27.58
14885;BME280;7534;50.762;7.000;2023-02-28T07:51:29;87281.00;;;-143.16;25.68
14885;BME280;7534;50.762;7.000;2023-02-28T07:53:55;87232.56;;;-143.16;24.57
14885;BME280;7534;50.762;7.000;2023-02-28T07:56:21;87103.41;;;-143.16;24.99
14885;BME280;7534;50.762;7.000;2023-02-28T07:58:46;87272.94;;;-143.16;23.66
14885;BME280;7534;50.762;7.000;2023-02-28T08:01:13;86988.38;;;-143.16;23.45
14885;BME280;7534;50.762;7.000;2023-02-28T08:03:40;86952.06;;;-143.16;23.55
14885;BME280;7534;50.762;7.000;2023-02-28T08:06:16;86950.03;;;-143.16;22.62
14885;BME280;7534;50.762;7.000;2023-02-28T08:08:41;86776.50;;;-143.16;22.49
14885;BME280;7534;50.762;7.000;2023-02-28T08:11:07;86798.69;;;-143.16;21.71
14885;BME280;7534;50.762;7.000;2023-02-28T08:13:33;86958.13;;;-143.16;23.74
14885;BME280;7534;50.762;7.000;2023-02-28T08:16:02;87095.34;;;-143.16;22.76
14885;BME280;7534;50.762;7.000;2023-02-28T08:18:27;87252.75;;;-143.16;24.28
14885;BME280;7534;50.762;7.000;2023-02-28T08:20:53;87484.84;;;-143.16;24.66
14885;BME280;7534;50.762;7.000;2023-02-28T08:23:19;87781.53;;;-143.16;25.26
14885;BME280;7534;50.762;7.000;2023-02-28T08:25:45;87963.19;;;-143.16;25.85
14885;BME280;7534;50.762;7.000;2023-02-28T08:28:17;88052.00;;;-143.16;27.26
14885;BME280;7534;50.762;7.000;2023-02-28T08:30:43;88475.94;;;-143.16;29.30
14885;BME280;7534;50.762;7.000;2023-02-28T08:33:09;88235.72;;;-143.16;29.95
14885;BME280;7534;50.762;7.000;2023-02-28T08:35:36;88068.16;;;-143.16;30.29
14885;BME280;7534;50.762;7.000;2023-02-28T08:38:02;88552.66;;;-143.16;30.18
14885;BME280;7534;50.762;7.000;2023-02-28T08:40:28;88308.38;;;-143.16;30.84
14885;BME280;7534;50.762;7.000;2023-02-28T08:42:54;88399.22;;;-143.16;31.30
14885;BME280;7534;50.762;7.000;2023-02-28T08:45:19;88292.22;;;-143.16;30.49
14885;BME280;7534;50.762;7.000;2023-02-28T08:47:45;88338.66;;;-143.16;29.57
14885;BME280;7534;50.762;7.000;2023-02-28T08:50:11;88221.59;;;-143.16;29.56
14885;BME280;7534;50.762;7.000;2023-02-28T08:52:38;88253.88;;;-143.16;29.25
14885;BME280;7534;50.762;7.000;2023-02-28T08:55:04;88270.03;;;-143.16;29.92
14885;BME280;7534;50.762;7.000;2023-02-28T08:57:30;88330.59;;;-143.16;28.79
14885;BME280;7534;50.762;7.000;2023-02-28T08:59:56;88082.28;;;-143.16;27.70
14885;BME280;7534;50.762;7.000;2023-02-28T09:02:22;88157.00;;;-143.16;28.53
14885;BME280;7534;50.762;7.000;2023-02-28T09:04:48;88072.19;;;-143.16;27.95
14885;BME280;7534;50.762;7.000;2023-02-28T09:07:14;88243.78;;;-143.16;28.03
14885;BME280;7534;50.762;7.000;2023-02-28T09:09:40;88161.03;;;-143.16;28.46
14885;BME280;7534;50.762;7.000;2023-02-28T09:12:26;88282.16;;;-143.16;28.60
14885;BME280;7534;50.762;7.000;2023-02-28T09:14:53;88276.09;;;-143.16;28.32
14885;BME280;7534;50.762;7.000;2023-02-28T09:17:20;88423.47;;;-143.16;27.31
14885;BME280;7534;50.762;7.000;2023-02-28T09:19:48;88274.06;;;-143.16;26.67
14885;BME280;7534;50.762;7.000;2023-02-28T09:22:14;88488.06;;;-143.16;27.70
14885;BME280;7534;50.762;7.000;2023-02-28T09:24:40;88225.63;;;-143.16;27.36
14885;BME280;7534;50.762;7.000;2023-02-28T09:27:06;88247.81;;;-143.16;27.01
14885;BME280;7534;50.762;7.000;2023-02-28T09:29:34;88189.28;;;-143.16;27.52
14885;BME280;7534;50.762;7.000;2023-02-28T09:32:00;88247.81;;;-143.16;27.84
14885;BME280;7534;50.762;7.000;2023-02-28T09:34:27;88700.03;;;-143.16;28.14
14885;BME280;7534;50.762;7.000;2023-02-28T09:36:53;88455.75;;;-143.16;28.52
14885;BME280;7534;50.762;7.000;2023-02-28T09:39:22;88451.72;;;-143.16;28.71
14885;BME280;7534;50.762;7.000;2023-02-28T09:41:52;88465.84;;;-143.16;29.03
14885;BME280;7534;50.762;7.000;2023-02-28T09:44:26;88415.38;;;-143.16;27.79
14885;BME280;7534;50.762;7.000;2023-02-28T09:47:00;88272.06;;;-143.16;27.36
14885;BME280;7534;50.762;7.000;2023-02-28T09:49:39;88332.63;;;-143.16;27.44
14885;BME280;7534;50.762;7.000;2023-02-28T09:52:14;88370.97;;;-143.16;27.25
14885;BME280;7534;50.762;7.000;2023-02-28T09:54:41;88413.38;;;-143.16;27.96
14885;BME280;7534;50.762;7.000;2023-02-28T09:57:40;88407.31;;;-143.16;27.98
14885;BME280;7534;50.762;7.000;2023-02-28T10:03:25;88445.66;;;-143.16;28.52
14885;BME280;7534;50.762;7.000;2023-02-28T10:06:11;88292.22;;;-143.16;28.36
14885;BME280;7534;50.762;7.000;2023-02-28T10:09:21;88504.22;;;-143.16;28.47
14885;BME280;7534;50.762;7.000;2023-02-28T10:11:52;88492.09;;;-143.16;28.94
14885;BME280;7534;50.762;7.000;2023-02-28T10:14:23;88702.06;;;-143.16;28.73
14885;BME280;7534;50.762;7.000;2023-02-28T10:17:04;88512.28;;;-143.16;28.92
14885;BME280;7534;50.762;7.000;2023-02-28T10:22:21;88475.94;;;-143.16;29.03
14885;BME280;7534;50.762;7.000;2023-02-28T10:24:52;88500.16;;;-143.16;29.22
14885;BME280;7534;50.762;7.000;2023-02-28T10:27:22;88504.22;;;-143.16;29.60
14885;BME280;7534;50.762;7.000;2023-02-28T10:29:58;88619.28;;;-143.16;29.60
14885;BME280;7534;50.762;7.000;2023-02-28T10:32:35;88653.59;;;-143.16;29.89
14885;BME280;7534;50.762;7.000;2023-02-28T10:35:15;88625.34;;;-143.16;30.27
14885;BME280;7534;50.762;7.000;2023-02-28T10:37:44;88899.94;;;-143.16;29.77
14885;BME280;7534;50.762;7.000;2023-02-28T10:45:35;88518.34;;;-143.16;29.56
14885;BME280;7534;50.762;7.000;2023-02-28T10:48:27;88595.06;;;-143.16;30.19
14885;BME280;7534;50.762;7.000;2023-02-28T10:50:55;88760.63;;;-143.16;30.10
14885;BME280;7534;50.762;7.000;2023-02-28T10:53:35;88675.81;;;-143.16;30.20
14885;BME280;7534;50.762;7.000;2023-02-28T10:56:06;88661.69;;;-143.16;30.24
14885;BME280;7534;50.762;7.000;2023-02-28T10:59:24;88548.63;;;-143.16;30.68
14885;BME280;7534;50.762;7.000;2023-02-28T11:01:45;88570.84;;;-143.16;29.71
14885;BME280;7534;50.762;7.000;2023-02-28T11:07:19;88605.16;;;-143.16;29.78
14885;BME280;7534;50.762;7.000;2023-02-28T11:09:50;88593.03;;;-143.16;29.52
14885;BME280;7534;50.762;7.000;2023-02-28T11:12:20;88597.06;;;-143.16;29.83
14885;BME280;7534;50.762;7.000;2023-02-28T11:14:56;88572.84;;;-143.16;29.13
14885;BME280;7534;50.762;7.000;2023-02-28T11:17:30;88389.13;;;-143.16;29.12
14885;BME280;7534;50.762;7.000;2023-02-28T11:20:02;88661.69;;;-143.16;29.69
14885;BME280;7534;50.762;7.000;2023-02-28T11:22:35;88861.56;;;-143.16;28.67
14885;BME280;7534;50.762;7.000;2023-02-28T11:25:16;88568.81;;;-143.16;28.85
14885;BME280;7534;50.762;7.000;2023-02-28T11:27:57;88558.72;;;-143.16;29.31
14885;BME280;7534;50.762;7.000;2023-02-28T11:30:30;88586.97;;;-143.16;29.23
14885;BME280;7534;50.762;7.000;2023-02-28T11:32:56;88350.78;;;-143.16;29.09
14885;BME280;7534;50.762;7.000;2023-02-28T11:35:38;88908.00;;;-143.16;29.13
14885;BME280;7534;50.762;7.000;2023-02-28T11:38:14;88451.72;;;-143.16;28.63
14885;BME280;7534;50.762;7.000;2023-02-28T11:41:05;88427.50;;;-143.16;28.49
14885;BME280;7534;50.762;7.000;2023-02-28T11:46:51;88522.38;;;-143.16;29.70
14885;BME280;7534;50.762;7.000;2023-02-28T11:50:00;88502.19;;;-143.16;28.75
14885;BME280;7534;50.762;7.000;2023-02-28T11:55:38;88516.31;;;-143.16;28.86
14885;BME280;7534;50.762;7.000;2023-02-28T11:59:05;88445.66;;;-143.16;28.40
14885;BME280;7534;50.762;7.000;2023-02-28T12:06:53;88227.63;;;-143.16;28.76
14885;BME280;7534;50.762;7.000;2023-02-28T12:09:38;88518.34;;;-143.16;28.92
14885;BME280;7534;50.762;7.000;2023-02-28T12:12:59;88552.66;;;-143.16;29.06
14885;BME280;7534;50.762;7.000;2023-02-28T12:18:49;88718.22;;;-143.16;28.91
14885;BME280;7534;50.762;7.000;2023-02-28T12:24:28;88534.50;;;-143.16;28.49
14885;BME280;7534;50.762;7.000;2023-02-28T12:27:02;88492.09;;;-143.16;28.58
14885;BME280;7534;50.762;7.000;2023-02-28T12:32:44;88431.53;;;-143.16;28.73
14885;BME280;7534;50.762;7.000;2023-02-28T12:35:36;88496.13;;;-143.16;28.57
14885;BME280;7534;50.762;7.000;2023-02-28T12:38:40;88306.38;;;-143.16;28.38
14885;BME280;7534;50.762;7.000;2023-02-28T12:43:53;88469.88;;;-143.16;28.28
14885;BME280;7534;50.762;7.000;2023-02-28T12:46:42;88387.13;;;-143.16;28.70
14885;BME280;7534;50.762;7.000;2023-02-28T12:49:16;88431.53;;;-143.16;29.30
14885;BME280;7534;50.762;7.000;2023-02-28T12:51:44;88409.31;;;-143.16;28.41
14885;BME280;7534;50.762;7.000;2023-02-28T12:54:23;88524.41;;;-143.16;28.75
14885;BME280;7534;50.762;7.000;2023-02-28T12:56:59;88427.50;;;-143.16;28.49
14885;BME280;7534;50.762;7.000;2023-02-28T12:59:59;88494.13;;;-143.16;29.05
14885;BME280;7534;50.762;7.000;2023-02-28T13:02:56;88463.84;;;-143.16;28.80
14885;BME280;7534;50.762;7.000;2023-02-28T13:08:59;88702.06;;;-143.16;28.80
14885;BME280;7534;50.762;7.000;2023-02-28T13:11:37;88512.28;;;-143.16;29.21
14885;BME280;7534;50.762;7.000;2023-02-28T13:14:25;88544.59;;;-143.16;28.73
14885;BME280;7534;50.762;7.000;2023-02-28T13:19:36;88504.22;;;-143.16;28.84
14885;BME280;7534;50.762;7.000;2023-02-28T13:22:04;88431.53;;;-143.16;29.55
14885;BME280;7534;50.762;7.000;2023-02-28T13:24:56;88576.88;;;-143.16;28.94
14885;BME280;7534;50.762;7.000;2023-02-28T13:27:38;88530.47;;;-143.16;29.19
14885;BME280;7534;50.762;7.000;2023-02-28T13:33:35;88524.41;;;-143.16;29.79
14885;BME280;7534;50.762;7.000;2023-02-28T13:38:48;88451.72;;;-143.16;30.05
14885;BME280;7534;50.762;7.000;2023-02-28T13:55:23;88560.75;;;-143.16;29.94
14885;BME280;7534;50.762;7.000;2023-02-28T14:06:32;88516.31;;;-143.16;30.40
14885;BME280;7534;50.762;7.000;2023-02-28T14:09:32;88778.78;;;-143.16;30.64
14885;BME280;7534;50.762;7.000;2023-02-28T14:18:29;88484.03;;;-143.16;29.73
14885;BME280;7534;50.762;7.000;2023-02-28T14:21:03;88467.88;;;-143.16;30.05
14885;BME280;7534;50.762;7.000;2023-02-28T14:26:57;88530.47;;;-143.16;29.52
14885;BME280;7534;50.762;7.000;2023-02-28T14:29:59;88387.13;;;-143.16;29.40
14885;BME280;7534;50.762;7.000;2023-02-28T14:36:04;88524.41;;;-143.16;29.65
14885;BME280;7534;50.762;7.000;2023-02-28T14:38:44;88770.72;;;-143.16;29.82
14885;BME280;7534;50.762;7.000;2023-02-28T14:41:36;88524.41;;;-143.16;30.16
14885;BME280;7534;50.762;7.000;2023-02-28T14:44:23;88508.25;;;-143.16;30.39
14885;BME280;7534;50.762;7.000;2023-02-28T14:46:53;88465.84;;;-143.16;30.03
14885;BME280;7534;50.762;7.000;2023-02-28T14:49:29;88467.88;;;-143.16;30.20
14885;BME280;7534;50.762;7.000;2023-02-28T14:54:43;88366.94;;;-143.16;29.77
14885;BME280;7534;50.762;7.000;2023-02-28T14:57:30;88419.41;;;-143.16;30.71
14885;BME280;7534;50.762;7.000;2023-02-28T15:00:16;88520.34;;;-143.16;30.05
14885;BME280;7534;50.762;7.000;2023-02-28T15:02:43;88479.97;;;-143.16;29.81
14885;BME280;7534;50.762;7.000;2023-02-28T15:07:39;88500.16;;;-143.16;29.99
14885;BME280;7534;50.762;7.000;2023-02-28T15:12:39;88411.34;;;-143.16;30.43
14885;BME280;7534;50.762;7.000;2023-02-28T15:15:14;88407.31;;;-143.16;30.55
14885;BME280;7534;50.762;7.000;2023-02-28T15:17:44;88447.69;;;-143.16;30.45
14885;BME280;7534;50.762;7.000;2023-02-28T15:20:15;88490.06;;;-143.16;30.32
14885;BME280;7534;50.762;7.000;2023-02-28T15:22:41;88261.97;;;-143.16;30.19
14885;BME280;7534;50.762;7.000;2023-02-28T15:25:18;88524.41;;;-143.16;30.30